createdAt,value
2023-03-31T00:02:30.121Z,99909.41
2023-03-31T00:05:00.136Z,99910.25
2023-03-31T00:07:29.970Z,99903.47
2023-03-31T00:10:16.547Z,99848.84
2023-03-31T00:12:47.975Z,99892.41
2023-03-31T00:15:20.357Z,99890.66
2023-03-31T00:17:50.148Z,99861.69
2023-03-31T00:20:20.244Z,99871.91
2023-03-31T00:22:49.963Z,99880.38
2023-03-31T00:25:19.977Z,99867.63
2023-03-31T00:27:50.550Z,99871.88
2023-03-31T00:30:23.172Z,99863.34
2023-03-31T00:32:53.497Z,99854.81
2023-03-31T00:35:23.633Z,99848.00
2023-03-31T00:37:54.022Z,99869.34
2023-03-31T00:40:23.804Z,99863.31
2023-03-31T00:42:54.311Z,99835.97
2023-03-31T00:45:30.273Z,99863.31
2023-03-31T00:48:06.273Z,99858.19
2023-03-31T00:50:40.271Z,99848.78
2023-03-31T00:53:14.438Z,99838.53
2023-03-31T00:55:47.801Z,99841.16
2023-03-31T00:58:20.418Z,99839.31
2023-03-31T01:00:54.274Z,99839.44
2023-03-31T01:03:26.643Z,99846.25
2023-03-31T01:06:00.466Z,99813.00
2023-03-31T01:08:31.284Z,99820.63
2023-03-31T01:11:06.494Z,99828.38
2023-03-31T01:13:38.864Z,99824.13
2023-03-31T01:16:14.890Z,99778.97
2023-03-31T01:18:46.398Z,99805.34
2023-03-31T01:21:47.384Z,99803.66
2023-03-31T01:24:38.151Z,99798.47
2023-03-31T01:27:40.054Z,99777.25
2023-03-31T01:30:45.158Z,99779.88
2023-03-31T01:33:44.999Z,99792.69
2023-03-31T01:36:52.362Z,99785.03
2023-03-31T01:39:49.216Z,99718.59
2023-03-31T01:42:28.462Z,99749.28
2023-03-31T01:45:06.151Z,99755.22
2023-03-31T01:47:41.171Z,99738.16
2023-03-31T01:50:19.116Z,99761.19
2023-03-31T01:52:53.351Z,99757.78
2023-03-31T01:55:29.974Z,99740.72
2023-03-31T01:58:06.043Z,99754.38
2023-03-31T02:00:42.233Z,99721.13
2023-03-31T02:03:18.159Z,99723.72
2023-03-31T02:05:52.992Z,99733.91
2023-03-31T02:08:27.260Z,99717.72
2023-03-31T02:11:01.790Z,99698.94
2023-03-31T02:13:34.674Z,99722.88
2023-03-31T02:16:09.834Z,99709.22
2023-03-31T02:18:41.951Z,99723.69
2023-03-31T02:21:14.787Z,99704.13
2023-03-31T02:23:48.238Z,99699.00
2023-03-31T02:26:25.658Z,99709.22
2023-03-31T02:28:55.693Z,99681.09
2023-03-31T02:31:32.158Z,99701.53
2023-03-31T02:34:03.120Z,99693.00
2023-03-31T02:36:34.564Z,99641.84
2023-03-31T02:39:10.473Z,99669.13
2023-03-31T02:41:43.059Z,99693.81
2023-03-31T02:44:13.347Z,99679.41
2023-03-31T02:46:43.874Z,99676.81
2023-03-31T02:49:15.473Z,99672.56
2023-03-31T02:52:12.168Z,99652.16
2023-03-31T02:55:14.410Z,99659.78
2023-03-31T02:58:00.328Z,99663.19
2023-03-31T03:00:42.606Z,99647.03
2023-03-31T03:03:26.350Z,99658.09
2023-03-31T03:06:07.006Z,99653.00
2023-03-31T03:09:09.283Z,99578.06
2023-03-31T03:11:49.894Z,99641.91
2023-03-31T03:14:31.162Z,99610.41
2023-03-31T03:17:06.195Z,99631.72
2023-03-31T03:19:36.016Z,99618.94
2023-03-31T03:22:08.739Z,99630.88
2023-03-31T03:24:40.099Z,99621.59
2023-03-31T03:27:09.844Z,99614.72
2023-03-31T03:29:43.041Z,99614.72
2023-03-31T03:32:13.065Z,99567.91
2023-03-31T03:34:43.237Z,99586.63
2023-03-31T03:37:12.974Z,99591.72
2023-03-31T03:39:42.724Z,99591.75
2023-03-31T03:42:12.483Z,99593.47
2023-03-31T03:44:44.834Z,99591.75
2023-03-31T03:47:14.546Z,99579.00
2023-03-31T03:49:44.261Z,99554.31
2023-03-31T03:52:14.016Z,99565.38
2023-03-31T03:54:43.734Z,99559.44
2023-03-31T03:57:13.709Z,99553.47
2023-03-31T03:59:46.123Z,99533.06
2023-03-31T04:02:16.400Z,99511.81
2023-03-31T04:04:46.205Z,99541.56
2023-03-31T04:07:15.944Z,99500.75
2023-03-31T04:09:45.716Z,99533.06
2023-03-31T04:12:15.470Z,99516.91
2023-03-31T04:14:47.935Z,99515.25
2023-03-31T04:17:18.033Z,99510.13
2023-03-31T04:19:50.982Z,99468.41
2023-03-31T04:22:20.778Z,99479.50
2023-03-31T04:24:53.027Z,99485.44
2023-03-31T04:27:23.215Z,99448.84
2023-03-31T04:29:55.612Z,99444.63
2023-03-31T04:32:25.812Z,99449.72
2023-03-31T04:35:02.958Z,99461.66
2023-03-31T04:37:34.942Z,99458.22
2023-03-31T04:40:10.112Z,99425.06
2023-03-31T04:42:39.890Z,99391.06
2023-03-31T04:45:13.273Z,99444.63
2023-03-31T04:47:43.694Z,99436.97
2023-03-31T04:50:17.016Z,99438.66
2023-03-31T04:52:47.864Z,99434.38
2023-03-31T04:55:17.945Z,99435.28
2023-03-31T04:57:47.702Z,99406.34
2023-03-31T05:00:21.980Z,99430.16
2023-03-31T05:02:52.096Z,99425.06
2023-03-31T05:05:21.946Z,99426.78
2023-03-31T05:07:51.671Z,99425.91
2023-03-31T05:10:21.979Z,99416.56
2023-03-31T05:12:51.820Z,99401.28
2023-03-31T05:15:24.783Z,99399.59
2023-03-31T05:17:54.587Z,99418.28
2023-03-31T05:20:24.398Z,99368.13
2023-03-31T05:22:54.165Z,99347.72
2023-03-31T05:25:24.282Z,99414.88
2023-03-31T05:27:54.055Z,99421.66
2023-03-31T05:30:26.443Z,99395.31
2023-03-31T05:32:57.222Z,99386.81
2023-03-31T05:35:28.393Z,99392.75
2023-03-31T05:37:58.133Z,99394.47
2023-03-31T05:40:27.878Z,99394.47
2023-03-31T05:42:57.656Z,99391.06
2023-03-31T05:45:30.033Z,99373.19
2023-03-31T05:47:59.821Z,99357.91
2023-03-31T05:50:29.746Z,99375.72
2023-03-31T05:52:59.938Z,99373.16
2023-03-31T05:55:30.783Z,99379.09
2023-03-31T05:58:02.195Z,99355.31
2023-03-31T06:00:36.175Z,99362.88
2023-03-31T06:03:08.098Z,99332.28
2023-03-31T06:05:38.286Z,99361.13
2023-03-31T06:08:08.371Z,99336.50
2023-03-31T06:10:38.104Z,99358.56
2023-03-31T06:13:07.816Z,99346.69
2023-03-31T06:15:40.289Z,99329.75
2023-03-31T06:18:11.000Z,99351.03
2023-03-31T06:20:40.880Z,99340.81
2023-03-31T06:23:10.584Z,99345.06
2023-03-31T06:25:50.785Z,99315.31
2023-03-31T06:28:22.333Z,99336.56
2023-03-31T06:30:54.805Z,99329.81
2023-03-31T06:33:24.864Z,99335.75
2023-03-31T06:35:54.907Z,99327.22
2023-03-31T06:38:24.895Z,99311.91
2023-03-31T06:40:55.141Z,99322.88
2023-03-31T06:43:25.540Z,99319.50
2023-03-31T06:45:59.059Z,99304.13
2023-03-31T06:48:30.371Z,99315.94
2023-03-31T06:51:03.837Z,99300.59
2023-03-31T06:53:34.004Z,99301.44
2023-03-31T06:56:04.579Z,99286.19
2023-03-31T06:58:34.856Z,99305.69
2023-03-31T07:01:09.208Z,99286.91
2023-03-31T07:03:39.543Z,99275.97
2023-03-31T07:06:10.147Z,99283.56
2023-03-31T07:08:40.177Z,99270.00
2023-03-31T07:11:10.567Z,99275.88
2023-03-31T07:13:41.028Z,99274.16
2023-03-31T07:16:14.401Z,99265.66
2023-03-31T07:18:45.466Z,99252.09
2023-03-31T07:21:15.498Z,99258.81
2023-03-31T07:23:45.595Z,99192.66
2023-03-31T07:26:15.783Z,99251.06
2023-03-31T07:28:45.828Z,99243.38
2023-03-31T07:31:18.368Z,99217.94
2023-03-31T07:33:48.089Z,99237.53
2023-03-31T07:36:18.163Z,99211.19
2023-03-31T07:38:49.939Z,99215.38
2023-03-31T07:41:22.316Z,99221.22
2023-03-31T07:43:52.876Z,99200.59
2023-03-31T07:46:27.732Z,99195.31
2023-03-31T07:48:58.985Z,99184.19
2023-03-31T07:51:29.752Z,99189.28
2023-03-31T07:53:59.475Z,99138.66
2023-03-31T07:56:29.263Z,99194.50
2023-03-31T07:58:59.091Z,99187.03
2023-03-31T08:01:31.435Z,99178.63
2023-03-31T08:04:01.457Z,99187.84
2023-03-31T08:06:31.554Z,99176.88
2023-03-31T08:09:01.770Z,99175.09
2023-03-31T08:11:31.730Z,99153.88
2023-03-31T08:14:01.689Z,99161.44
2023-03-31T08:16:34.067Z,99166.44
2023-03-31T08:19:05.019Z,99164.69
2023-03-31T08:21:34.800Z,99151.91
2023-03-31T08:24:06.098Z,99149.31
2023-03-31T08:26:35.823Z,99142.63
2023-03-31T08:29:05.666Z,99114.78
2023-03-31T08:31:38.064Z,99144.34
2023-03-31T08:34:08.807Z,99140.06
2023-03-31T08:36:38.621Z,99101.91
2023-03-31T08:39:08.391Z,99137.41
2023-03-31T08:41:50.192Z,99122.91
2023-03-31T08:44:25.021Z,99126.03
2023-03-31T08:46:59.402Z,99123.56
2023-03-31T08:49:31.030Z,99093.91
2023-03-31T08:52:05.247Z,99117.75
2023-03-31T08:54:37.064Z,99099.19
2023-03-31T08:57:13.804Z,99115.31
2023-03-31T08:59:44.676Z,99097.84
2023-03-31T09:02:24.881Z,99084.25
2023-03-31T09:05:17.719Z,99093.56
2023-03-31T09:07:56.343Z,99091.19
2023-03-31T09:10:42.314Z,99090.44
2023-03-31T09:13:27.204Z,99087.91
2023-03-31T09:16:02.608Z,99093.81
2023-03-31T09:18:36.754Z,99100.47
2023-03-31T09:21:15.144Z,99090.28
2023-03-31T09:23:49.674Z,99103.16
2023-03-31T09:26:27.906Z,99089.59
2023-03-31T09:29:01.312Z,99077.81
2023-03-31T09:31:31.772Z,99105.78
2023-03-31T09:34:13.108Z,99106.56
2023-03-31T09:36:43.067Z,99082.78
2023-03-31T09:39:16.778Z,99088.94
2023-03-31T09:41:49.442Z,99082.19
2023-03-31T09:44:27.739Z,99083.06
2023-03-31T09:46:58.731Z,99083.94
2023-03-31T09:49:36.559Z,99084.75
2023-03-31T09:52:09.852Z,99071.22
2023-03-31T09:54:44.292Z,99069.47
2023-03-31T09:57:19.246Z,99071.13
2023-03-31T09:59:53.594Z,99081.31
2023-03-31T10:02:38.136Z,99062.63
2023-03-31T10:05:29.263Z,99044.88
2023-03-31T10:08:37.082Z,99077.84
2023-03-31T10:11:12.927Z,99065.94
2023-03-31T10:13:48.816Z,99074.47
2023-03-31T10:16:26.356Z,99084.66
2023-03-31T10:18:57.503Z,99063.56
2023-03-31T10:21:31.441Z,99094.06
2023-03-31T10:24:03.186Z,99076.91
2023-03-31T10:26:35.716Z,99080.28
2023-03-31T10:29:13.083Z,99064.25
2023-03-31T10:31:43.247Z,99081.13
2023-03-31T10:34:19.615Z,99069.97
2023-03-31T10:36:54.961Z,99062.34
2023-03-31T10:39:32.073Z,99068.28
2023-03-31T10:42:02.739Z,99055.56
2023-03-31T10:44:35.687Z,99060.78
2023-03-31T10:47:22.642Z,99040.50
2023-03-31T10:49:54.679Z,99073.56
2023-03-31T10:52:28.654Z,99066.63
2023-03-31T10:55:01.867Z,99048.75
2023-03-31T10:57:43.128Z,99056.34
2023-03-31T11:00:25.442Z,99040.00
2023-03-31T11:03:24.552Z,99053.44
2023-03-31T11:05:57.760Z,99029.84
2023-03-31T11:08:49.172Z,99055.28
2023-03-31T11:11:30.198Z,99002.66
2023-03-31T11:14:09.329Z,99016.25
2023-03-31T11:16:48.889Z,99040.69
2023-03-31T11:19:29.988Z,99038.09
2023-03-31T11:22:10.021Z,99038.16
2023-03-31T11:25:06.230Z,99025.31
2023-03-31T11:27:53.162Z,99026.09
2023-03-31T11:30:27.440Z,99039.59
2023-03-31T11:33:08.498Z,99008.06
2023-03-31T11:35:48.061Z,99032.56
2023-03-31T11:38:32.092Z,99010.56
2023-03-31T11:41:08.258Z,99006.97
2023-03-31T11:43:42.870Z,99005.31
2023-03-31T11:46:16.297Z,99023.00
2023-03-31T11:48:50.790Z,99017.88
2023-03-31T11:51:25.874Z,98979.13
2023-03-31T11:53:58.524Z,99006.16
2023-03-31T11:56:36.324Z,98989.66
2023-03-31T11:59:07.178Z,99003.13
2023-03-31T12:01:43.840Z,99003.22
2023-03-31T12:04:27.251Z,98998.81
2023-03-31T12:07:03.816Z,98988.19
2023-03-31T12:09:41.269Z,98951.81
2023-03-31T12:12:20.065Z,98986.09
2023-03-31T12:14:54.664Z,98980.50
2023-03-31T12:17:29.666Z,98964.09
2023-03-31T12:20:02.685Z,98989.34
2023-03-31T12:22:36.911Z,98970.34
2023-03-31T12:25:07.454Z,98972.13
2023-03-31T12:27:43.131Z,98947.19
2023-03-31T12:30:18.829Z,98972.44
2023-03-31T12:32:52.207Z,98973.38
2023-03-31T12:35:27.546Z,98972.50
2023-03-31T12:38:16.736Z,98964.00
2023-03-31T12:40:57.690Z,98971.00
2023-03-31T12:43:49.660Z,98945.88
2023-03-31T12:46:32.380Z,98959.09
2023-03-31T12:49:18.578Z,98953.81
2023-03-31T12:52:06.767Z,98969.00
2023-03-31T12:54:59.423Z,98962.28
2023-03-31T12:57:30.097Z,98971.56
2023-03-31T13:00:27.921Z,98957.09
2023-03-31T13:03:28.656Z,98951.75
2023-03-31T13:05:58.511Z,98938.94
2023-03-31T13:08:53.588Z,98937.88
2023-03-31T13:11:25.990Z,98905.50
2023-03-31T13:14:02.987Z,98931.31
2023-03-31T13:16:37.859Z,98937.78
2023-03-31T13:19:08.088Z,98913.22
2023-03-31T13:21:56.395Z,98900.13
2023-03-31T13:24:27.150Z,98919.28
2023-03-31T13:26:59.537Z,98922.41
2023-03-31T13:29:43.064Z,98921.09
2023-03-31T13:32:26.372Z,98889.66
2023-03-31T13:35:01.291Z,98899.66
2023-03-31T13:37:49.630Z,98914.63
2023-03-31T13:40:33.629Z,98898.66
2023-03-31T13:43:48.052Z,98921.19
2023-03-31T13:46:42.223Z,98912.28
2023-03-31T13:49:40.742Z,98904.88
2023-03-31T13:52:14.102Z,98907.44
2023-03-31T13:55:22.715Z,98894.75
2023-03-31T13:58:33.487Z,98907.94
2023-03-31T14:01:28.831Z,98900.59
2023-03-31T14:04:10.704Z,98887.88
2023-03-31T14:06:48.003Z,98900.88
2023-03-31T14:09:24.934Z,98903.31
2023-03-31T14:11:54.850Z,98905.88
2023-03-31T14:14:24.628Z,98899.88
2023-03-31T14:16:58.365Z,98910.28
2023-03-31T14:20:00.753Z,98905.09
2023-03-31T14:22:49.670Z,98923.59
2023-03-31T14:25:30.870Z,98897.63
2023-03-31T14:28:08.711Z,98917.78
2023-03-31T14:30:47.053Z,98921.59
2023-03-31T14:33:35.267Z,98912.84
2023-03-31T14:36:16.068Z,98910.81
2023-03-31T14:38:48.874Z,98930.50
2023-03-31T14:41:29.963Z,98936.97
2023-03-31T14:44:05.016Z,98903.84
2023-03-31T14:46:39.254Z,98922.44
2023-03-31T14:49:22.400Z,98920.00
2023-03-31T14:51:54.789Z,98917.69
2023-03-31T14:54:27.200Z,98918.47
2023-03-31T14:57:00.056Z,98905.00
2023-03-31T14:59:33.095Z,98903.22
2023-03-31T15:02:04.827Z,98909.94
2023-03-31T15:04:46.719Z,98885.31
2023-03-31T15:07:18.364Z,98898.75
2023-03-31T15:09:53.715Z,98907.31
2023-03-31T15:12:26.174Z,98900.66
2023-03-31T15:15:00.176Z,98901.41
2023-03-31T15:17:34.380Z,98903.03
2023-03-31T15:20:23.485Z,98907.31
2023-03-31T15:22:53.635Z,98890.94
2023-03-31T15:25:29.141Z,98893.19
2023-03-31T15:28:03.263Z,98903.22
2023-03-31T15:30:35.608Z,98881.00
2023-03-31T15:33:19.049Z,98893.53
2023-03-31T15:35:49.746Z,98902.69
2023-03-31T15:38:20.643Z,98888.28
2023-03-31T15:40:57.845Z,98890.09
2023-03-31T15:43:32.754Z,98889.22
2023-03-31T15:46:03.881Z,98886.28
2023-03-31T15:48:37.183Z,98878.28
2023-03-31T15:51:20.611Z,98856.28
2023-03-31T15:53:53.472Z,98871.16
2023-03-31T15:56:38.319Z,98871.94
2023-03-31T15:59:08.904Z,98875.66
2023-03-31T16:01:42.660Z,98870.34
2023-03-31T16:04:15.695Z,98849.00
2023-03-31T16:06:49.043Z,98870.22
2023-03-31T16:09:24.144Z,98836.47
2023-03-31T16:11:59.358Z,98849.31
2023-03-31T16:14:33.275Z,98843.59
2023-03-31T16:17:07.020Z,98855.44
2023-03-31T16:19:44.555Z,98856.41
2023-03-31T16:22:19.698Z,98861.56
2023-03-31T16:24:49.817Z,98854.97
2023-03-31T16:27:22.247Z,98856.66
2023-03-31T16:29:52.038Z,98846.47
2023-03-31T16:32:22.357Z,98851.44
2023-03-31T16:34:59.295Z,98875.00
2023-03-31T16:37:29.308Z,98870.16
2023-03-31T16:39:59.603Z,98853.38
2023-03-31T16:42:31.988Z,98834.66
2023-03-31T16:45:13.699Z,98851.84
2023-03-31T16:47:45.752Z,98874.59
2023-03-31T16:50:15.987Z,98862.72
2023-03-31T16:52:47.378Z,98856.03
2023-03-31T16:55:17.243Z,98867.19
2023-03-31T16:57:49.913Z,98874.00
2023-03-31T17:00:20.722Z,98878.34
2023-03-31T17:02:50.623Z,98871.53
2023-03-31T17:05:21.032Z,98866.41
2023-03-31T17:07:50.772Z,98847.09
2023-03-31T17:10:20.780Z,98882.47
2023-03-31T17:12:53.180Z,98868.66
2023-03-31T17:15:23.637Z,98878.00
2023-03-31T17:17:53.502Z,98879.69
2023-03-31T17:20:23.572Z,98865.13
2023-03-31T17:22:53.375Z,98828.75
2023-03-31T17:25:23.854Z,98868.50
2023-03-31T17:27:56.427Z,98863.41
2023-03-31T17:30:27.717Z,98859.88
2023-03-31T17:32:57.555Z,98872.66
2023-03-31T17:35:27.644Z,98872.69
2023-03-31T17:37:57.493Z,98858.53
2023-03-31T17:40:28.198Z,98886.63
2023-03-31T17:43:00.667Z,98886.59
2023-03-31T17:45:30.928Z,98854.69
2023-03-31T17:48:01.066Z,98871.47
2023-03-31T17:50:31.348Z,98857.28
2023-03-31T17:53:01.658Z,98865.09
2023-03-31T17:55:31.556Z,98876.81
2023-03-31T17:58:03.933Z,98891.38
2023-03-31T18:00:33.965Z,98897.63
2023-03-31T18:03:03.780Z,98872.38
2023-03-31T18:05:34.501Z,98903.16
2023-03-31T18:08:04.224Z,98879.50
2023-03-31T18:10:34.555Z,98910.75
2023-03-31T18:13:07.510Z,98883.75
2023-03-31T18:15:37.960Z,98897.91
2023-03-31T18:18:08.722Z,98889.66
2023-03-31T18:20:38.485Z,98891.47
2023-03-31T18:23:08.202Z,98873.59
2023-03-31T18:25:38.370Z,98890.44
2023-03-31T18:28:10.914Z,98893.84
2023-03-31T18:30:41.330Z,98880.22
2023-03-31T18:33:11.164Z,98896.19
2023-03-31T18:35:41.379Z,98884.34
2023-03-31T18:38:11.322Z,98877.66
2023-03-31T18:40:41.098Z,98848.09
2023-03-31T18:43:13.402Z,98892.59
2023-03-31T18:45:43.118Z,98873.09
2023-03-31T18:48:12.936Z,98891.72
2023-03-31T18:50:42.940Z,98902.03
2023-03-31T18:53:13.399Z,98895.44
2023-03-31T18:55:43.267Z,98887.75
2023-03-31T18:58:15.584Z,98901.16
2023-03-31T19:00:45.508Z,98893.75
2023-03-31T19:03:15.777Z,98888.72
2023-03-31T19:05:45.579Z,98882.84
2023-03-31T19:08:15.742Z,98892.19
2023-03-31T19:10:45.481Z,98873.44
2023-03-31T19:13:18.815Z,98902.31
2023-03-31T19:15:48.710Z,98902.34
2023-03-31T19:18:18.402Z,98900.66
2023-03-31T19:20:49.553Z,98900.91
2023-03-31T19:23:19.306Z,98908.50
2023-03-31T19:25:49.161Z,98909.22
2023-03-31T19:28:21.466Z,98909.16
2023-03-31T19:30:51.937Z,98916.63
2023-03-31T19:33:21.906Z,98904.78
2023-03-31T19:35:51.845Z,98899.88
2023-03-31T19:38:21.988Z,98899.84
2023-03-31T19:40:52.101Z,98911.66
2023-03-31T19:43:29.304Z,98908.25
2023-03-31T19:46:00.500Z,98904.97
2023-03-31T19:48:34.265Z,98899.88
2023-03-31T19:51:08.584Z,98899.97
2023-03-31T19:53:41.900Z,98883.09
2023-03-31T19:56:13.596Z,98895.78
2023-03-31T19:58:47.211Z,98902.66
2023-03-31T20:01:20.417Z,98886.53
2023-03-31T20:03:53.215Z,98901.84
2023-03-31T20:06:25.413Z,98891.47
2023-03-31T20:08:56.304Z,98902.47
2023-03-31T20:11:27.095Z,98899.00
2023-03-31T20:13:59.611Z,98903.94
2023-03-31T20:16:31.591Z,98905.69
2023-03-31T20:19:04.349Z,98908.31
2023-03-31T20:21:39.918Z,98903.16
2023-03-31T20:24:10.574Z,98904.19
2023-03-31T20:26:40.302Z,98901.56
2023-03-31T20:29:13.258Z,98889.69
2023-03-31T20:31:43.686Z,98872.63
2023-03-31T20:34:16.839Z,98904.59
2023-03-31T20:36:49.334Z,98876.63
2023-03-31T20:39:20.054Z,98880.22
2023-03-31T20:41:50.649Z,98893.59
2023-03-31T20:44:22.938Z,98891.09
2023-03-31T20:46:52.755Z,98900.38
2023-03-31T20:49:22.493Z,98899.53
2023-03-31T20:51:52.210Z,98895.28
2023-03-31T20:54:22.454Z,98870.84
2023-03-31T20:56:52.608Z,98890.44
2023-03-31T20:59:25.093Z,98890.50
2023-03-31T21:01:54.862Z,98885.56
2023-03-31T21:04:24.727Z,98897.44
2023-03-31T21:06:54.467Z,98894.69
2023-03-31T21:09:24.218Z,98889.78
2023-03-31T21:11:54.335Z,98883.88
2023-03-31T21:14:27.251Z,98882.00
2023-03-31T21:16:57.080Z,98875.25
2023-03-31T21:19:27.317Z,98888.00
2023-03-31T21:21:57.074Z,98904.97
2023-03-31T21:24:27.809Z,98896.53
2023-03-31T21:26:57.563Z,98909.34
2023-03-31T21:29:29.899Z,98895.78
2023-03-31T21:32:00.672Z,98890.00
2023-03-31T21:34:30.755Z,98912.16
2023-03-31T21:37:01.695Z,98904.59
2023-03-31T21:39:31.420Z,98903.69
2023-03-31T21:42:01.151Z,98902.13
2023-03-31T21:44:33.794Z,98896.81
2023-03-31T21:47:03.512Z,98892.63
2023-03-31T21:49:33.878Z,98906.22
2023-03-31T21:52:04.687Z,98893.53
2023-03-31T21:54:34.388Z,98907.97
2023-03-31T21:57:04.226Z,98848.72
2023-03-31T21:59:36.865Z,98903.66
2023-03-31T22:02:07.193Z,98890.06
2023-03-31T22:04:36.989Z,98890.09
2023-03-31T22:07:06.719Z,98903.59
2023-03-31T22:09:37.402Z,98900.97
2023-03-31T22:12:07.345Z,98905.38
2023-03-31T22:14:41.696Z,98909.44
2023-03-31T22:17:11.418Z,98894.38
2023-03-31T22:19:41.775Z,98908.75
2023-03-31T22:22:11.663Z,98906.22
2023-03-31T22:24:41.581Z,98902.13
2023-03-31T22:27:11.500Z,98899.53
2023-03-31T22:29:44.363Z,98901.19
2023-03-31T22:32:19.955Z,98907.06
2023-03-31T22:34:50.683Z,98904.50
2023-03-31T22:37:20.628Z,98867.38
2023-03-31T22:39:50.370Z,98909.63
2023-03-31T22:42:20.084Z,98886.81
2023-03-31T22:44:52.427Z,98913.03
2023-03-31T22:47:22.231Z,98916.44
2023-03-31T22:49:51.976Z,98898.63
2023-03-31T22:52:21.746Z,98909.56
2023-03-31T22:54:51.850Z,98917.16
2023-03-31T22:57:22.058Z,98916.38
2023-03-31T22:59:54.382Z,98901.91
2023-03-31T23:02:25.080Z,98899.44
2023-03-31T23:04:54.876Z,98914.00
2023-03-31T23:07:24.637Z,98918.19
2023-03-31T23:09:54.375Z,98887.69
2023-03-31T23:12:24.113Z,98904.63
2023-03-31T23:14:56.651Z,98919.13
2023-03-31T23:17:26.667Z,98902.16
2023-03-31T23:19:56.944Z,98899.59
2023-03-31T23:22:27.801Z,98912.34
2023-03-31T23:24:57.594Z,98884.38
2023-03-31T23:27:27.431Z,98907.25
2023-03-31T23:29:59.817Z,98912.25
2023-03-31T23:32:29.560Z,98906.28
2023-03-31T23:34:59.294Z,98912.28
2023-03-31T23:37:29.045Z,98908.84
2023-03-31T23:39:58.804Z,98909.75
2023-03-31T23:42:28.546Z,98913.09
2023-03-31T23:45:00.892Z,98906.34
2023-03-31T23:47:30.687Z,98902.88
2023-03-31T23:50:01.345Z,98876.03
2023-03-31T23:52:31.117Z,98910.78
2023-03-31T23:55:01.076Z,98908.19
2023-03-31T23:57:31.271Z,98893.69
